Time;durP1;ratioP1;P1;durP2;ratioP2;P2;SDS_P1;SDS_P2;PMS_P1;PMS_P2;Temp;Humidity;BMP_temperature;BMP_pressure;BME280_temperature;BME280_humidity;BME280_pressure;Samples;Min_cycle;Max_cycle;Signal;HPM_P1;HPM_P2
2022/01/16 00:01:16;;;;;;;291.15;191.00;;;6.50;92.80;;;;;;5092536;28;20059;-67
2022/01/16 00:04:24;;;;;;;267.85;180.00;;;6.50;93.20;;;;;;5092312;28;20059;-67
2022/01/16 00:07:28;;;;;;;259.98;170.50;;;6.50;93.20;;;;;;5092483;28;20050;-67
2022/01/16 00:10:32;;;;;;;264.15;170.18;;;6.50;93.40;;;;;;5092846;28;20039;-67
2022/01/16 00:13:55;;;;;;;254.48;162.93;;;6.50;93.50;;;;;;5092733;28;20075;-67
2022/01/16 00:17:00;;;;;;;243.80;159.65;;;6.50;93.40;;;;;;5092605;28;20443;-67
2022/01/16 00:20:04;;;;;;;257.35;161.88;;;6.40;93.30;;;;;;5092110;28;20062;-67
2022/01/16 00:23:10;;;;;;;243.90;156.52;;;6.30;93.40;;;;;;5092580;28;20047;-67
2022/01/16 00:26:14;;;;;;;251.15;153.15;;;6.30;93.50;;;;;;5092449;28;20051;-67
2022/01/16 00:29:19;;;;;;;232.20;150.15;;;6.30;93.80;;;;;;5091730;28;20035;-67
2022/01/16 00:32:23;;;;;;;214.98;143.15;;;6.40;93.60;;;;;;5079401;28;20039;-67
2022/01/16 00:35:27;;;;;;;223.35;145.07;;;6.40;92.80;;;;;;5091979;28;20670;-67
2022/01/16 00:38:30;;;;;;;227.35;147.48;;;6.30;92.30;;;;;;5091734;28;20051;-67
2022/01/16 00:41:35;;;;;;;222.75;139.02;;;6.20;92.80;;;;;;5092058;28;20055;-67
2022/01/16 00:44:39;;;;;;;205.07;130.48;;;6.10;93.20;;;;;;5092131;28;20063;-67
2022/01/16 00:47:42;;;;;;;210.60;133.02;;;6.10;92.90;;;;;;5092040;28;20058;-67
2022/01/16 00:50:47;;;;;;;203.50;131.50;;;6.00;92.50;;;;;;5091865;28;20047;-67
2022/01/16 00:53:51;;;;;;;218.15;132.30;;;6.00;92.90;;;;;;5091503;28;20047;-67
2022/01/16 00:56:55;;;;;;;195.18;123.03;;;6.00;93.20;;;;;;5091553;28;20078;-67
2022/01/16 00:59:59;;;;;;;202.68;123.45;;;6.00;93.40;;;;;;5091595;28;20591;-67
2022/01/16 01:03:05;;;;;;;189.13;121.05;;;6.00;93.40;;;;;;5091683;28;20051;-67
2022/01/16 01:06:09;;;;;;;191.63;122.90;;;6.00;93.60;;;;;;5091767;28;20043;-67
2022/01/16 01:09:13;;;;;;;181.60;116.55;;;6.00;93.60;;;;;;5078984;28;20047;-67
2022/01/16 01:12:30;;;;;;;181.68;118.22;;;6.10;93.70;;;;;;5091255;28;20039;-67
2022/01/16 01:15:48;;;;;;;180.05;117.45;;;6.20;93.80;;;;;;5090983;28;20411;-67
2022/01/16 01:18:52;;;;;;;156.35;96.97;;;6.30;94.00;;;;;;5091236;28;20039;-67
2022/01/16 01:21:57;;;;;;;133.57;82.32;;;6.40;94.00;;;;;;5091226;28;20055;-67
2022/01/16 01:25:00;;;;;;;151.75;98.40;;;6.40;94.30;;;;;;5091058;28;20043;-67
2022/01/16 01:28:07;;;;;;;156.27;94.03;;;6.40;94.30;;;;;;5091276;28;20498;-67
2022/01/16 01:31:12;;;;;;;140.75;86.70;;;6.40;94.30;;;;;;5091459;28;20360;-67
2022/01/16 01:34:15;;;;;;;132.82;84.65;;;6.40;94.30;;;;;;5091426;28;20079;-67
2022/01/16 01:37:19;;;;;;;138.52;84.07;;;6.40;94.30;;;;;;5090903;28;20039;-67
2022/01/16 01:40:26;;;;;;;107.70;63.95;;;6.40;94.20;;;;;;5090673;28;20063;-67
2022/01/16 01:53:18;;;;;;;146.32;97.78;;;6.20;93.60;;;;;;5091104;28;20051;-67
2022/01/16 01:56:23;;;;;;;149.63;94.32;;;6.10;93.70;;;;;;5091020;28;20043;-67
2022/01/16 01:59:28;;;;;;;151.57;96.28;;;6.10;93.70;;;;;;5090878;28;20055;-67
2022/01/16 02:02:42;;;;;;;147.32;93.68;;;6.00;94.00;;;;;;5091055;28;20059;-67
2022/01/16 02:05:46;;;;;;;144.70;86.68;;;6.00;93.90;;;;;;5090107;28;20051;-67
2022/01/16 02:08:54;;;;;;;122.47;76.47;;;6.00;93.50;;;;;;5091215;28;20102;-67
2022/01/16 02:11:59;;;;;;;115.72;69.97;;;6.00;93.30;;;;;;5066591;28;20427;-67
2022/01/16 02:15:29;;;;;;;117.60;66.20;;;5.90;93.40;;;;;;5078175;28;20047;-67
2022/01/16 02:35:30;;;;;;;93.60;53.22;;;5.60;92.80;;;;;;5094318;28;20039;-67
2022/01/16 02:38:34;;;;;;;82.05;50.15;;;5.60;93.20;;;;;;5093941;28;20506;-67
2022/01/16 02:41:40;;;;;;;89.93;50.03;;;5.50;93.50;;;;;;5093932;28;20059;-67
2022/01/16 02:44:49;;;;;;;76.43;47.47;;;5.50;93.60;;;;;;5094247;28;20043;-67
2022/01/16 02:47:56;;;;;;;74.65;45.30;;;5.60;93.10;;;;;;5094219;28;20039;-67
2022/01/16 02:51:00;;;;;;;81.20;49.10;;;5.60;93.40;;;;;;5094123;28;20392;-67
2022/01/16 02:54:04;;;;;;;71.85;43.08;;;5.70;93.30;;;;;;5094046;28;20126;-67
2022/01/16 02:57:11;;;;;;;72.72;43.63;;;5.60;92.90;;;;;;5093941;28;20039;-67
2022/01/16 03:00:15;;;;;;;80.63;47.53;;;5.60;92.70;;;;;;5094015;28;20500;-67
2022/01/16 03:03:19;;;;;;;76.10;44.20;;;5.60;92.60;;;;;;5094033;28;20046;-67
2022/01/16 03:06:28;;;;;;;74.43;45.15;;;5.50;92.70;;;;;;5093840;28;20047;-67
2022/01/16 03:09:55;;;;;;;77.93;44.70;;;5.30;92.90;;;;;;5093720;28;20051;-67
2022/01/16 03:12:57;;;;;;;71.75;45.13;;;5.30;93.50;;;;;;5093594;28;20051;-67
2022/01/16 03:16:00;;;;;;;74.60;44.42;;;5.30;94.00;;;;;;5093603;28;20039;-67
2022/01/16 03:22:27;;;;;;;76.78;44.45;;;5.30;94.20;;;;;;5093544;28;20059;-67
2022/01/16 03:25:31;;;;;;;72.05;43.40;;;5.50;93.80;;;;;;5093511;28;20043;-67
2022/01/16 03:28:35;;;;;;;77.18;46.50;;;5.50;93.20;;;;;;5093495;28;20047;-67
2022/01/16 03:31:39;;;;;;;80.82;46.03;;;5.60;93.00;;;;;;5093509;28;20043;-67
2022/01/16 03:34:44;;;;;;;71.97;42.22;;;5.50;92.80;;;;;;5093201;28;20051;-67
2022/01/16 03:37:48;;;;;;;76.55;43.03;;;5.30;92.50;;;;;;5092384;28;20051;-67
2022/01/16 03:40:52;;;;;;;75.97;44.35;;;5.30;93.00;;;;;;5080574;28;20055;-67
2022/01/16 03:44:03;;;;;;;72.40;43.67;;;5.40;93.00;;;;;;5093233;28;20541;-67
2022/01/16 03:47:08;;;;;;;74.97;44.50;;;5.30;93.10;;;;;;5092995;28;20047;-67
2022/01/16 03:50:12;;;;;;;80.85;44.10;;;5.10;93.10;;;;;;5092964;28;20051;-67
2022/01/16 03:53:17;;;;;;;78.97;43.97;;;5.00;93.30;;;;;;5093003;28;20059;-67
2022/01/16 03:56:21;;;;;;;75.72;44.25;;;5.10;93.60;;;;;;5092877;28;20059;-67
2022/01/16 03:59:25;;;;;;;78.43;45.38;;;5.10;93.80;;;;;;5093137;28;20051;-67
2022/01/16 04:02:29;;;;;;;73.13;43.40;;;5.20;93.80;;;;;;5092950;28;20067;-67
2022/01/16 04:05:33;;;;;;;71.38;41.72;;;5.30;93.70;;;;;;5092934;28;20047;-67
2022/01/16 04:08:38;;;;;;;70.88;41.42;;;5.40;93.40;;;;;;5092737;28;20051;-67
2022/01/16 04:11:52;;;;;;;65.72;40.30;;;5.30;93.30;;;;;;5092620;28;20054;-67
2022/01/16 04:18:03;;;;;;;65.15;38.28;;;5.20;93.30;;;;;;5092293;28;20384;-67
2022/01/16 04:21:07;;;;;;;72.88;38.78;;;5.20;93.10;;;;;;5092255;28;20055;-67
2022/01/16 04:24:11;;;;;;;64.95;38.28;;;5.10;93.70;;;;;;5092428;28;20039;-67
2022/01/16 04:27:16;;;;;;;65.07;38.67;;;5.10;93.70;;;;;;5092236;28;20059;-67
2022/01/16 04:30:20;;;;;;;60.45;36.28;;;5.10;93.70;;;;;;5079953;28;20043;-67
2022/01/16 04:33:24;;;;;;;62.92;35.15;;;5.20;93.40;;;;;;5091316;28;20063;-67
2022/01/16 04:36:28;;;;;;;53.72;32.92;;;5.30;93.00;;;;;;5079581;28;20047;-67
2022/01/16 04:39:35;;;;;;;53.45;32.13;;;5.30;92.90;;;;;;5079305;28;20047;-67
2022/01/16 04:46:03;;;;;;;55.33;31.75;;;5.40;92.40;;;;;;5092198;28;20043;-67
2022/01/16 04:49:07;;;;;;;51.05;29.98;;;5.30;92.30;;;;;;5091858;28;20055;-67
2022/01/16 04:52:13;;;;;;;47.08;28.33;;;5.20;92.50;;;;;;5092030;28;20052;-67
2022/01/16 04:55:17;;;;;;;44.97;27.33;;;5.20;92.30;;;;;;5091740;28;20091;-67
2022/01/16 04:58:22;;;;;;;48.92;26.80;;;5.10;92.60;;;;;;5091599;28;20054;-67
2022/01/16 05:01:26;;;;;;;43.55;26.45;;;5.20;92.70;;;;;;5091471;28;20054;-67
2022/01/16 05:04:30;;;;;;;43.35;26.40;;;5.20;92.70;;;;;;5091705;28;20387;-67
2022/01/16 05:07:34;;;;;;;41.85;24.15;;;5.20;92.60;;;;;;5091635;28;20399;-67
2022/01/16 05:10:38;;;;;;;46.35;25.95;;;4.60;92.50;;;;;;5091639;28;20494;-67
2022/01/16 05:16:47;;;;;;;39.72;23.08;;;5.10;92.40;;;;;;5091488;28;20054;-67
2022/01/16 05:19:51;;;;;;;39.50;21.38;;;5.00;92.50;;;;;;5091666;28;20039;-67
2022/01/16 05:22:55;;;;;;;29.38;18.88;;;4.90;93.00;;;;;;5091374;28;20047;-68
2022/01/16 05:26:00;;;;;;;37.75;22.92;;;5.00;93.20;;;;;;5091259;28;20040;-68
2022/01/16 05:29:05;;;;;;;36.60;22.25;;;5.00;92.40;;;;;;5091213;28;20058;-68
2022/01/16 05:32:09;;;;;;;39.42;22.00;;;4.90;92.60;;;;;;5091328;28;20051;-68
2022/01/16 05:35:13;;;;;;;36.65;21.67;;;4.90;93.10;;;;;;5091300;28;20043;-68
2022/01/16 05:38:17;;;;;;;34.17;21.70;;;5.00;92.90;;;;;;5078432;28;20121;-68
2022/01/16 05:41:22;;;;;;;35.65;21.67;;;5.00;92.70;;;;;;5078511;28;20055;-68
2022/01/16 05:44:26;;;;;;;37.75;21.77;;;5.10;92.60;;;;;;5078797;28;20410;-68
2022/01/16 05:47:29;;;;;;;38.40;20.73;;;5.00;92.50;;;;;;5091014;28;20398;-68
2022/01/16 05:50:33;;;;;;;35.83;20.73;;;4.80;92.70;;;;;;5078448;28;20494;-68
2022/01/16 05:53:38;;;;;;;36.40;21.35;;;4.80;93.00;;;;;;5090973;28;20578;-68
2022/01/16 05:56:42;;;;;;;35.70;21.25;;;4.90;93.00;;;;;;5078198;28;20051;-68
2022/01/16 05:59:45;;;;;;;36.85;22.20;;;4.90;92.80;;;;;;5078331;28;20050;-68
2022/01/16 06:02:49;;;;;;;34.33;20.73;;;4.80;92.70;;;;;;5094539;28;20071;-68
2022/01/16 06:05:54;;;;;;;34.33;21.60;;;4.70;92.90;;;;;;5082728;28;20039;-68
2022/01/16 06:08:58;;;;;;;36.30;21.10;;;4.60;92.80;;;;;;5082541;28;20043;-68
2022/01/16 06:12:04;;;;;;;37.03;22.38;;;4.60;93.20;;;;;;5095201;28;20392;-68
2022/01/16 06:15:09;;;;;;;32.60;21.50;;;4.60;93.60;;;;;;5082030;28;20039;-68
2022/01/16 06:18:14;;;;;;;36.80;21.80;;;4.70;93.30;;;;;;5082297;28;20186;-68
2022/01/16 06:21:18;;;;;;;40.17;20.92;;;4.70;93.20;;;;;;5094575;28;20059;-68
2022/01/16 06:24:22;;;;;;;34.65;22.02;;;4.70;93.10;;;;;;5094809;28;20047;-68
2022/01/16 06:27:26;;;;;;;36.08;22.85;;;4.70;93.20;;;;;;5081721;28;20047;-68
2022/01/16 06:30:30;;;;;;;43.83;23.33;;;4.70;93.50;;;;;;5082176;28;20055;-68
2022/01/16 06:33:34;;;;;;;34.80;21.60;;;4.80;93.50;;;;;;5094743;28;20453;-68
2022/01/16 06:36:38;;;;;;;36.80;21.42;;;4.70;93.40;;;;;;5081877;28;20383;-68
2022/01/16 06:39:42;;;;;;;54.20;22.65;;;4.80;93.10;;;;;;5081996;28;20055;-68
2022/01/16 06:42:47;;;;;;;46.00;20.77;;;4.90;93.10;;;;;;5081372;28;20411;-68
2022/01/16 06:45:51;;;;;;;37.92;21.05;;;5.00;92.60;;;;;;5094303;28;20043;-68
2022/01/16 06:48:55;;;;;;;45.60;28.45;;;4.90;92.70;;;;;;5093423;28;20066;-68
2022/01/16 06:51:59;;;;;;;50.85;28.88;;;4.90;93.00;;;;;;5094414;28;20387;-68
2022/01/16 06:55:05;;;;;;;49.75;31.33;;;4.80;93.10;;;;;;5094406;28;20038;-68
2022/01/16 06:58:09;;;;;;;39.67;25.55;;;4.80;93.10;;;;;;5094168;28;20395;-68
2022/01/16 07:01:16;;;;;;;46.67;28.42;;;4.70;92.90;;;;;;5093921;28;20092;-68
2022/01/16 07:04:21;;;;;;;65.65;37.00;;;4.70;93.10;;;;;;5093911;28;20038;-68
2022/01/16 07:07:25;;;;;;;55.22;34.20;;;4.80;93.30;;;;;;5093761;28;20055;-68
2022/01/16 07:10:29;;;;;;;51.45;30.65;;;4.90;93.30;;;;;;5093864;28;20510;-68
2022/01/16 07:13:33;;;;;;;45.10;27.08;;;4.90;93.30;;;;;;5092746;28;20047;-68
2022/01/16 07:16:37;;;;;;;49.60;31.48;;;5.10;93.30;;;;;;5081303;28;20051;-68
2022/01/16 07:19:41;;;;;;;56.30;31.27;;;5.20;93.20;;;;;;5093714;28;20059;-68
2022/01/16 07:22:45;;;;;;;54.72;34.65;;;5.30;93.00;;;;;;5093724;28;20051;-68
2022/01/16 07:25:52;;;;;;;55.42;30.58;;;5.50;92.50;;;;;;5081135;28;20035;-68
2022/01/16 07:28:56;;;;;;;68.72;35.28;;;5.60;92.40;;;;;;5080901;28;20039;-68
2022/01/16 07:32:00;;;;;;;62.05;39.10;;;5.70;92.60;;;;;;5093317;28;20042;-68
2022/01/16 07:35:04;;;;;;;73.45;46.28;;;5.90;92.10;;;;;;5093231;28;20043;-68
2022/01/16 07:38:09;;;;;;;70.00;42.72;;;6.00;91.90;;;;;;5093165;28;20047;-68
2022/01/16 07:41:13;;;;;;;63.72;38.70;;;6.10;91.60;;;;;;5093184;28;20051;-68
2022/01/16 07:44:16;;;;;;;66.65;38.85;;;6.10;91.60;;;;;;5093373;28;20068;-68
2022/01/16 07:47:20;;;;;;;80.05;40.80;;;6.10;91.90;;;;;;5093082;28;20059;-66
2022/01/16 07:50:24;;;;;;;57.25;33.05;;;6.20;92.30;;;;;;5093131;28;20055;-66
2022/01/16 07:53:28;;;;;;;56.67;34.15;;;6.30;92.20;;;;;;5092781;28;20035;-66
2022/01/16 07:56:32;;;;;;;43.17;29.00;;;6.40;91.80;;;;;;5092706;28;20046;-66
2022/01/16 07:59:36;;;;;;;57.97;32.63;;;6.50;91.60;;;;;;5092977;28;20207;-66
2022/01/16 08:02:40;;;;;;;51.17;31.02;;;6.60;91.70;;;;;;5092621;28;20051;-66
2022/01/16 08:05:44;;;;;;;53.92;30.83;;;6.70;91.70;;;;;;5092995;28;20035;-66
2022/01/16 08:08:48;;;;;;;53.70;29.48;;;6.90;91.70;;;;;;5092721;28;20047;-67
2022/01/16 08:11:52;;;;;;;43.10;28.38;;;7.00;91.70;;;;;;5092773;28;20043;-66
2022/01/16 08:14:56;;;;;;;44.25;27.92;;;7.10;91.40;;;;;;5092454;28;20399;-66
2022/01/16 08:18:00;;;;;;;44.95;28.58;;;7.30;91.20;;;;;;5092489;28;20043;-67
2022/01/16 08:21:04;;;;;;;49.13;28.60;;;7.50;91.00;;;;;;5092617;28;20039;-66
2022/01/16 08:24:08;;;;;;;43.83;26.58;;;7.60;91.00;;;;;;5092600;28;20058;-66
2022/01/16 08:27:13;;;;;;;38.03;23.58;;;7.80;91.00;;;;;;5079926;28;20043;-66
2022/01/16 08:30:17;;;;;;;40.63;25.38;;;7.90;91.00;;;;;;5092646;28;20054;-66
2022/01/16 08:33:21;;;;;;;36.40;23.77;;;8.10;90.70;;;;;;5092540;28;20047;-66
2022/01/16 08:36:25;;;;;;;32.83;22.48;;;8.20;90.60;;;;;;5092198;28;20510;-66
2022/01/16 08:39:28;;;;;;;35.15;22.92;;;8.50;90.70;;;;;;5091825;28;20070;-66
2022/01/16 08:42:35;;;;;;;36.63;23.25;;;8.80;90.50;;;;;;5091924;28;20050;-67
2022/01/16 08:45:41;;;;;;;39.70;24.85;;;9.10;89.20;;;;;;5068324;28;20047;-67
2022/01/16 08:48:45;;;;;;;43.40;26.85;;;9.40;87.30;;;;;;5079680;28;20047;-67
2022/01/16 08:51:49;;;;;;;41.65;27.10;;;9.60;85.50;;;;;;5079593;28;20391;-67
2022/01/16 08:54:53;;;;;;;43.17;26.35;;;9.80;85.40;;;;;;5092121;28;20051;-67
2022/01/16 08:57:59;;;;;;;45.40;27.90;;;10.10;85.30;;;;;;5091062;28;20054;-67
2022/01/16 09:01:03;;;;;;;43.22;28.33;;;10.30;84.80;;;;;;5091867;28;20081;-67
2022/01/16 09:04:07;;;;;;;47.35;31.08;;;10.50;84.40;;;;;;5091869;28;20059;-67
2022/01/16 09:07:11;;;;;;;48.38;32.35;;;10.70;83.50;;;;;;5091686;28;20518;-67
2022/01/16 09:10:14;;;;;;;43.58;27.73;;;10.80;83.20;;;;;;5091627;28;20051;-67
2022/01/16 09:13:19;;;;;;;50.15;30.48;;;11.00;83.70;;;;;;5091683;28;20043;-67
2022/01/16 09:16:23;;;;;;;42.20;29.25;;;11.20;83.40;;;;;;5091566;28;20039;-67
2022/01/16 09:19:27;;;;;;;46.08;31.55;;;11.40;83.10;;;;;;5091589;28;20438;-67
2022/01/16 09:22:31;;;;;;;55.42;30.55;;;11.70;83.20;;;;;;5091110;28;20051;-67
2022/01/16 09:25:35;;;;;;;55.17;33.45;;;12.00;81.90;;;;;;5091465;28;20157;-67
2022/01/16 09:28:41;;;;;;;46.35;31.20;;;12.10;81.70;;;;;;5091352;28;20066;-67
2022/01/16 09:31:45;;;;;;;49.17;31.88;;;12.30;81.40;;;;;;5079057;28;20046;-67
2022/01/16 09:34:49;;;;;;;49.70;32.47;;;12.50;81.30;;;;;;5091427;28;20058;-67
2022/01/16 09:37:53;;;;;;;47.78;31.30;;;12.70;81.20;;;;;;5090770;28;20094;-67
2022/01/16 09:40:57;;;;;;;50.20;32.75;;;12.80;80.50;;;;;;5091289;28;20066;-67
2022/01/16 09:44:01;;;;;;;54.35;33.17;;;13.10;79.80;;;;;;5078537;28;20387;-67
2022/01/16 09:47:06;;;;;;;60.38;34.47;;;13.20;79.50;;;;;;5090923;28;20035;-67
2022/01/16 09:50:14;;;;;;;58.00;37.25;;;13.40;79.30;;;;;;5066959;28;20051;-67
2022/01/16 09:53:19;;;;;;;58.22;37.28;;;13.60;78.60;;;;;;5091305;28;20043;-67
2022/01/16 09:56:24;;;;;;;56.13;38.50;;;13.80;77.70;;;;;;5090900;28;20043;-67
2022/01/16 09:59:28;;;;;;;65.25;41.80;;;14.00;76.80;;;;;;5090887;28;20102;-67
2022/01/16 10:02:32;;;;;;;73.85;46.70;;;14.20;76.40;;;;;;5078077;28;20565;-67
2022/01/16 10:05:39;;;;;;;75.28;45.42;;;14.30;76.40;;;;;;5078596;28;20055;-67
2022/01/16 10:08:45;;;;;;;63.17;46.08;;;14.50;76.90;;;;;;5078599;28;20047;-67
2022/01/16 10:12:02;;;;;;;71.20;49.13;;;14.70;76.80;;;;;;5090881;28;20043;-67
2022/01/16 10:15:19;;;;;;;64.72;44.90;;;14.80;76.80;;;;;;5091027;28;20047;-67
2022/01/16 10:18:39;;;;;;;67.78;44.40;;;15.00;77.40;;;;;;5090926;28;20047;-67
2022/01/16 10:21:43;;;;;;;63.55;43.83;;;15.10;78.20;;;;;;5078059;28;20043;-67
2022/01/16 10:24:51;;;;;;;54.97;40.22;;;15.30;78.80;;;;;;5090406;28;20043;-67
2022/01/16 10:27:55;;;;;;;51.65;36.35;;;15.40;79.40;;;;;;5090673;28;20047;-67
2022/01/16 10:30:59;;;;;;;55.08;39.15;;;15.60;80.00;;;;;;5090865;28;20471;-67
2022/01/16 10:34:27;;;;;;;49.60;36.45;;;15.60;79.70;;;;;;5090849;28;20043;-67
2022/01/16 10:37:31;;;;;;;53.10;37.50;;;15.70;80.30;;;;;;5090339;28;20051;-67
2022/01/16 10:40:38;;;;;;;52.20;36.42;;;15.80;80.80;;;;;;5090784;28;20047;-67
2022/01/16 10:43:45;;;;;;;48.83;33.58;;;15.90;80.80;;;;;;5090351;28;20051;-67
2022/01/16 10:46:49;;;;;;;39.55;27.95;;;15.90;81.40;;;;;;5090592;28;20043;-67
2022/01/16 10:50:10;;;;;;;34.90;24.23;;;15.90;82.30;;;;;;5094147;28;20067;-67
2022/01/16 10:53:17;;;;;;;29.65;22.33;;;16.00;83.00;;;;;;5094411;28;20047;-67
2022/01/16 10:56:26;;;;;;;35.10;24.48;;;16.10;84.10;;;;;;5093872;28;20043;-67
2022/01/16 10:59:31;;;;;;;36.13;27.38;;;16.10;84.00;;;;;;5094204;28;20043;-67
2022/01/16 11:02:35;;;;;;;34.75;25.52;;;16.10;84.30;;;;;;5093991;28;20047;-67
2022/01/16 11:05:43;;;;;;;30.25;21.10;;;16.10;85.20;;;;;;5081346;28;20032;-67
2022/01/16 11:08:51;;;;;;;30.33;21.90;;;16.10;85.60;;;;;;5093963;28;20059;-67
2022/01/16 11:11:59;;;;;;;30.45;22.20;;;16.10;86.10;;;;;;5093346;28;20035;-67
2022/01/16 11:15:04;;;;;;;31.35;21.15;;;16.10;86.60;;;;;;5093986;28;20118;-66
2022/01/16 11:18:10;;;;;;;29.73;22.48;;;16.10;86.60;;;;;;5093951;28;20145;-66
2022/01/16 11:21:19;;;;;;;33.67;24.15;;;16.00;86.80;;;;;;5091356;28;20585;-66
2022/01/16 11:24:47;;;;;;;30.90;19.83;;;16.00;86.90;;;;;;5093121;28;20047;-67
2022/01/16 11:27:51;;;;;;;24.02;17.73;;;15.90;87.50;;;;;;5092982;28;20486;-67
2022/01/16 11:30:58;;;;;;;23.55;14.75;;;15.90;88.00;;;;;;5093155;28;20047;-67
2022/01/16 11:34:02;;;;;;;20.15;13.65;;;15.80;88.20;;;;;;5093374;28;20062;-67
2022/01/16 11:37:07;;;;;;;26.48;14.73;;;15.80;88.90;;;;;;5093438;28;20047;-67
2022/01/16 11:40:27;;;;;;;22.50;14.68;;;15.80;88.80;;;;;;5092452;28;20499;-67
2022/01/16 11:43:48;;;;;;;23.60;15.18;;;15.70;89.30;;;;;;5093332;28;20051;-67
2022/01/16 11:46:57;;;;;;;24.77;13.32;;;15.60;89.90;;;;;;5080742;28;20156;-67
2022/01/16 11:50:10;;;;;;;16.13;11.45;;;15.60;90.00;;;;;;5092491;28;20063;-67
2022/01/16 11:54:13;;;;;;;19.30;11.77;;;15.50;90.30;;;;;;5080708;28;20047;-67
2022/01/16 11:57:24;;;;;;;14.07;10.68;;;15.40;90.40;;;;;;5010476;28;20060;-67
2022/01/16 12:00:44;;;;;;;14.40;9.70;;;15.30;90.50;;;;;;5012274;28;20049;-66
2022/01/16 12:03:48;;;;;;;12.02;9.25;;;15.30;90.70;;;;;;5092814;28;20078;-67
2022/01/16 12:06:53;;;;;;;16.27;8.93;;;15.20;90.90;;;;;;5092500;28;20035;-67
2022/01/16 12:09:59;;;;;;;17.67;10.20;;;15.20;91.30;;;;;;5092441;28;20399;-66
2022/01/16 12:13:04;;;;;;;14.10;8.75;;;15.20;91.50;;;;;;5079997;28;20055;-66
2022/01/16 12:16:34;;;;;;;20.35;10.57;;;15.10;91.30;;;;;;5092645;28;20055;-67
2022/01/16 12:19:44;;;;;;;14.18;9.05;;;15.20;91.30;;;;;;5092259;28;20043;-67
2022/01/16 12:22:58;;;;;;;11.50;8.02;;;15.10;91.70;;;;;;5092282;28;20054;-66
2022/01/16 12:26:02;;;;;;;16.58;10.60;;;15.10;91.70;;;;;;5092685;28;20047;-66
2022/01/16 12:29:06;;;;;;;13.70;10.15;;;15.10;91.90;;;;;;5092576;28;20047;-66
2022/01/16 12:32:49;;;;;;;10.75;8.48;;;15.10;91.50;;;;;;5092474;28;20071;-66
2022/01/16 12:35:58;;;;;;;13.77;8.63;;;15.10;91.70;;;;;;5092096;28;20051;-66
2022/01/16 12:39:08;;;;;;;16.40;7.75;;;15.10;91.70;;;;;;5079368;28;20055;-66
2022/01/16 12:42:12;;;;;;;11.90;7.50;;;15.00;91.50;;;;;;5092011;28;20055;-66
2022/01/16 12:45:16;;;;;;;14.07;8.95;;;15.00;91.50;;;;;;5092003;28;20511;-66
2022/01/16 12:48:21;;;;;;;15.00;7.65;;;15.00;91.90;;;;;;5092426;28;20043;-66
2022/01/16 12:51:28;;;;;;;12.27;8.13;;;14.90;92.10;;;;;;5091687;28;20035;-66
2022/01/16 12:54:33;;;;;;;18.83;10.98;;;14.90;92.30;;;;;;5079437;28;20495;-66
2022/01/16 12:57:36;;;;;;;17.52;11.02;;;14.90;92.60;;;;;;5079456;28;20039;-66
2022/01/16 13:01:05;;;;;;;17.02;11.02;;;14.90;92.80;;;;;;5091867;28;20502;-66
2022/01/16 13:04:26;;;;;;;17.38;11.57;;;14.90;92.90;;;;;;5078844;28;20043;-66
2022/01/16 13:07:31;;;;;;;19.08;12.25;;;14.90;93.00;;;;;;5079133;28;20066;-66
2022/01/16 13:10:35;;;;;;;18.33;13.00;;;14.80;93.00;;;;;;5091205;28;20047;-67
2022/01/16 13:13:39;;;;;;;14.18;10.25;;;14.80;93.00;;;;;;5079266;28;20051;-66
2022/01/16 13:16:49;;;;;;;18.83;10.95;;;14.80;93.10;;;;;;5078309;28;20498;-66
2022/01/16 13:19:55;;;;;;;13.63;9.70;;;14.80;93.30;;;;;;5091100;28;20094;-66
2022/01/16 13:23:00;;;;;;;12.95;8.65;;;14.80;93.40;;;;;;5090216;28;20055;-66
2022/01/16 13:26:03;;;;;;;14.07;9.10;;;14.80;93.40;;;;;;5089982;28;20058;-66
2022/01/16 13:29:07;;;;;;;11.88;8.85;;;14.70;93.60;;;;;;5090302;28;20043;-67
2022/01/16 13:32:14;;;;;;;14.40;9.02;;;14.70;93.70;;;;;;5089893;28;20047;-66
2022/01/16 13:35:28;;;;;;;17.80;9.57;;;14.70;93.80;;;;;;5078171;28;20055;-65
2022/01/16 13:38:32;;;;;;;13.23;8.57;;;14.60;93.90;;;;;;5090830;28;20051;-66
2022/01/16 13:41:42;;;;;;;11.93;7.75;;;14.60;93.90;;;;;;5091404;28;20075;-65
2022/01/16 13:44:46;;;;;;;12.63;9.40;;;14.60;93.90;;;;;;5078747;28;20510;-66
2022/01/16 13:48:15;;;;;;;12.57;8.80;;;14.60;94.00;;;;;;5091184;28;20046;-65
2022/01/16 13:51:21;;;;;;;14.27;8.70;;;14.50;94.00;;;;;;5092164;28;20039;-69
2022/01/16 13:54:30;;;;;;;13.57;9.23;;;14.50;94.10;;;;;;5079458;28;20098;-67
2022/01/16 13:57:35;;;;;;;15.73;9.43;;;14.50;94.30;;;;;;5078689;28;20043;-69
2022/01/16 14:00:39;;;;;;;18.10;10.88;;;14.50;94.40;;;;;;5090662;28;20055;-69
2022/01/16 14:03:48;;;;;;;18.48;11.80;;;14.40;94.40;;;;;;5090722;28;20059;-69
2022/01/16 14:07:01;;;;;;;16.20;9.48;;;14.40;94.50;;;;;;5078837;28;20035;-69
2022/01/16 14:10:06;;;;;;;12.73;9.35;;;14.40;94.50;;;;;;5079516;28;20043;-68
2022/01/16 14:13:11;;;;;;;12.63;9.85;;;14.30;94.50;;;;;;5079725;28;20053;-68
2022/01/16 14:16:15;;;;;;;13.38;9.45;;;14.30;94.50;;;;;;5091856;28;20407;-68
2022/01/16 14:19:36;;;;;;;16.17;10.13;;;14.30;94.60;;;;;;5067028;28;20106;-70
2022/01/16 14:22:41;;;;;;;16.63;10.40;;;14.30;94.60;;;;;;5093202;28;20051;-69
2022/01/16 14:25:45;;;;;;;12.90;9.10;;;14.20;94.60;;;;;;5095566;28;20499;-68
2022/01/16 14:28:51;;;;;;;26.23;11.77;;;14.20;94.70;;;;;;5095517;28;20055;-70
2022/01/16 14:31:58;;;;;;;13.30;10.30;;;14.20;94.70;;;;;;5096039;28;20058;-70
2022/01/16 14:35:03;;;;;;;18.08;11.65;;;14.20;94.80;;;;;;5082997;28;20043;-69
2022/01/16 14:38:07;;;;;;;23.73;17.15;;;14.10;94.80;;;;;;5095099;28;20067;-68
2022/01/16 14:41:12;;;;;;;30.80;22.25;;;14.10;94.90;;;;;;5095712;28;20051;-69
2022/01/16 14:44:19;;;;;;;16.70;12.13;;;14.10;94.80;;;;;;5095345;28;20145;-68
2022/01/16 14:47:24;;;;;;;13.60;10.15;;;14.10;94.70;;;;;;5094914;28;20051;-67
2022/01/16 14:50:28;;;;;;;12.02;9.52;;;14.10;94.80;;;;;;5094426;28;20055;-67
2022/01/16 14:53:32;;;;;;;13.88;9.50;;;14.00;94.80;;;;;;5094300;28;20388;-67
2022/01/16 14:56:37;;;;;;;21.13;14.07;;;14.00;94.90;;;;;;5094337;28;20051;-66
2022/01/16 14:59:40;;;;;;;16.42;11.73;;;14.00;95.10;;;;;;5094029;28;20278;-66
2022/01/16 15:02:44;;;;;;;17.85;10.93;;;13.90;95.20;;;;;;5093910;28;20054;-66
2022/01/16 15:05:48;;;;;;;14.07;10.35;;;14.00;95.20;;;;;;5081486;28;20055;-66
2022/01/16 15:08:56;;;;;;;17.95;11.73;;;13.90;95.20;;;;;;5094068;28;20071;-66
2022/01/16 15:12:00;;;;;;;18.10;12.00;;;13.90;95.40;;;;;;5081645;28;20047;-66
2022/01/16 15:15:07;;;;;;;18.08;11.85;;;13.90;95.50;;;;;;5093990;28;20058;-65
2022/01/16 15:18:12;;;;;;;15.60;10.90;;;13.90;95.60;;;;;;5093702;28;20035;-68
2022/01/16 15:21:16;;;;;;;18.60;12.50;;;13.80;95.60;;;;;;5093531;28;20098;-66
2022/01/16 15:24:20;;;;;;;19.88;12.95;;;13.80;95.70;;;;;;5093702;28;20051;-68
2022/01/16 15:27:27;;;;;;;16.83;13.15;;;13.80;95.90;;;;;;5093884;28;20043;-66
2022/01/16 15:30:32;;;;;;;19.80;13.48;;;13.70;95.90;;;;;;5093668;28;20047;-66
2022/01/16 15:33:36;;;;;;;19.80;14.25;;;13.70;96.00;;;;;;5092987;28;20490;-66
2022/01/16 15:36:40;;;;;;;22.27;13.52;;;13.70;96.20;;;;;;5093817;28;20040;-68
2022/01/16 15:39:47;;;;;;;21.08;13.15;;;13.60;96.30;;;;;;5093578;28;20070;-65
2022/01/16 15:42:51;;;;;;;22.95;14.98;;;13.60;96.40;;;;;;5093414;28;20043;-67
2022/01/16 15:45:59;;;;;;;30.23;19.95;;;13.60;96.50;;;;;;5080965;28;20047;-67
2022/01/16 15:49:03;;;;;;;27.02;16.60;;;13.50;96.70;;;;;;5093124;28;20039;-65
2022/01/16 15:52:07;;;;;;;24.70;15.85;;;13.50;96.80;;;;;;5093134;28;20075;-65
2022/01/16 15:55:11;;;;;;;23.30;15.20;;;13.40;97.00;;;;;;5092735;28;20039;-65
2022/01/16 15:58:17;;;;;;;31.25;16.88;;;13.50;97.10;;;;;;5093487;28;20047;-65
2022/01/16 16:01:21;;;;;;;30.63;17.45;;;13.40;97.20;;;;;;5069299;28;20043;-65
2022/01/16 16:04:26;;;;;;;25.17;18.05;;;13.40;97.30;;;;;;5093255;28;20043;-65
2022/01/16 16:07:30;;;;;;;35.33;19.95;;;13.30;97.40;;;;;;5092911;28;20035;-65
2022/01/16 16:10:36;;;;;;;30.70;19.75;;;13.30;97.50;;;;;;5092360;28;20039;-65
2022/01/16 16:13:39;;;;;;;27.77;18.70;;;13.20;97.60;;;;;;5093064;28;20055;-67
2022/01/16 16:16:43;;;;;;;28.70;20.13;;;13.20;97.80;;;;;;5092928;28;20043;-67
2022/01/16 16:19:48;;;;;;;28.33;19.52;;;13.20;98.00;;;;;;5092810;28;20047;-65
2022/01/16 16:22:57;;;;;;;30.88;20.75;;;13.10;98.00;;;;;;5078097;28;20415;-65
2022/01/16 16:26:01;;;;;;;28.73;20.50;;;13.10;98.10;;;;;;5091877;28;20043;-65
2022/01/16 16:29:05;;;;;;;34.42;22.13;;;13.10;98.10;;;;;;5091944;28;20051;-65